Time;durP1;ratioP1;P1;durP2;ratioP2;P2;SDS_P1;SDS_P2;PMS_P1;PMS_P2;Temp;Humidity;BMP_temperature;BMP_pressure;BME280_temperature;BME280_humidity;BME280_pressure;Samples;Min_cycle;Max_cycle;Signal;HPM_P1;HPM_P2
2022/01/12 00:01:06;;;;;;;17.90;12.13;;;9.70;99.90;;;8.73;100.00;103124.50;4168071;28;20842;-73
2022/01/12 00:03:09;;;;;;;19.13;12.30;;;9.40;99.90;;;8.72;100.00;103138.59;4168247;28;20022;-73
2022/01/12 00:05:11;;;;;;;18.23;12.13;;;10.20;99.90;;;8.66;100.00;103131.06;4168100;28;20382;-73
2022/01/12 00:07:13;;;;;;;21.83;15.38;;;9.80;99.90;;;8.57;100.00;103118.41;4167566;28;20280;-73
2022/01/12 00:09:14;;;;;;;18.00;12.65;;;9.30;99.90;;;8.59;100.00;103119.16;4168054;28;20408;-73
2022/01/12 00:11:15;;;;;;;24.17;15.63;;;9.20;99.90;;;8.57;100.00;103136.81;4168034;28;20025;-73
2022/01/12 00:13:16;;;;;;;23.08;14.77;;;9.30;99.90;;;8.57;100.00;103135.00;4167749;28;20436;-73
2022/01/12 00:15:17;;;;;;;22.75;13.10;;;9.30;99.90;;;8.58;100.00;103128.81;4165012;28;20026;-73
2022/01/12 00:17:18;;;;;;;20.52;13.32;;;9.30;99.90;;;8.64;100.00;103135.53;4151475;28;20473;-73
2022/01/12 00:19:22;;;;;;;23.10;12.70;;;9.30;99.90;;;8.68;100.00;103140.56;4168836;28;20803;-73
2022/01/12 00:21:23;;;;;;;24.88;14.43;;;9.30;99.90;;;8.59;100.00;103140.22;4161465;28;20027;-73
2022/01/12 00:23:25;;;;;;;21.08;13.38;;;9.30;99.90;;;8.62;100.00;103140.88;4166658;28;20584;-74
2022/01/12 00:25:30;;;;;;;24.60;12.15;;;9.30;99.90;;;8.64;100.00;103146.06;4151529;28;20025;-73
2022/01/12 00:34:33;;;;;;;19.90;14.32;;;9.30;99.90;;;8.71;100.00;103155.31;4167853;28;20059;-73
2022/01/12 00:36:34;;;;;;;26.05;16.42;;;9.30;99.90;;;8.77;100.00;103158.47;4167446;28;20033;-73
2022/01/12 00:38:35;;;;;;;23.63;14.32;;;9.40;99.90;;;8.88;100.00;103160.47;4167702;28;20038;-73
2022/01/12 00:40:47;;;;;;;24.55;15.30;;;9.40;99.90;;;8.79;100.00;103169.75;4167629;28;20104;-73
2022/01/12 00:42:48;;;;;;;24.67;15.63;;;9.50;99.90;;;8.72;100.00;103163.09;4167267;28;20049;-73
2022/01/12 00:44:49;;;;;;;23.10;14.90;;;9.50;99.90;;;8.68;100.00;103163.38;4167501;28;20025;-73
2022/01/12 00:46:52;;;;;;;29.80;15.85;;;9.40;99.90;;;8.73;100.00;103159.56;4167407;28;20123;-73
2022/01/12 00:48:56;;;;;;;22.67;14.88;;;9.40;99.90;;;8.74;100.00;103166.53;4167503;28;20079;-73
2022/01/12 00:50:59;;;;;;;26.02;16.40;;;9.40;99.90;;;8.78;100.00;103173.28;4152598;28;20033;-74
2022/01/12 00:53:00;;;;;;;25.20;15.50;;;9.50;99.90;;;8.68;100.00;103166.88;4166193;28;20026;-73
2022/01/12 00:55:01;;;;;;;20.50;14.25;;;9.40;99.90;;;8.68;100.00;103168.63;4167582;28;20080;-73
2022/01/12 00:57:02;;;;;;;22.80;14.10;;;9.40;99.90;;;8.66;100.00;103165.25;4167075;28;20040;-73
2022/01/12 00:59:03;;;;;;;24.10;15.57;;;9.40;99.90;;;8.66;100.00;103173.97;4167327;28;20045;-73
2022/01/12 01:01:05;;;;;;;29.95;15.95;;;9.40;99.90;;;8.75;100.00;103175.28;4167447;28;20087;-73
2022/01/12 01:03:08;;;;;;;22.33;14.63;;;9.00;99.90;;;8.81;100.00;103173.13;4167380;28;20481;-73
2022/01/12 01:05:09;;;;;;;22.88;14.32;;;9.50;99.90;;;8.80;100.00;103170.59;4167480;28;20776;-73
2022/01/12 01:07:10;;;;;;;19.48;14.75;;;9.90;99.90;;;8.77;100.00;103161.09;4165762;28;20037;-73
2022/01/12 01:09:11;;;;;;;18.58;13.57;;;9.20;99.90;;;8.74;100.00;103157.78;4167415;28;20105;-73
2022/01/12 01:11:12;;;;;;;19.92;13.43;;;9.40;99.90;;;8.72;100.00;103160.47;4167444;28;20469;-73
2022/01/12 01:13:25;;;;;;;22.27;14.23;;;9.40;99.90;;;8.69;100.00;103163.28;4180226;28;20017;-73
2022/01/12 01:27:13;;;;;;;17.33;14.02;;;9.40;99.90;;;8.77;100.00;103165.50;4150381;28;20045;-73
2022/01/12 01:29:14;;;;;;;22.10;13.55;;;9.40;99.90;;;8.67;100.00;103153.78;4149597;28;20054;-73
2022/01/12 01:31:15;;;;;;;22.45;14.30;;;9.40;99.90;;;8.60;100.00;103147.19;4165679;28;20029;-73
2022/01/12 01:33:17;;;;;;;22.73;13.65;;;9.30;99.90;;;8.63;100.00;103160.97;4166962;28;20026;-73
2022/01/12 01:35:19;;;;;;;20.27;13.52;;;9.80;99.90;;;8.59;100.00;103163.88;4167103;28;20113;-73
2022/01/12 01:37:20;;;;;;;25.92;13.48;;;9.00;99.90;;;8.64;100.00;103175.84;4178850;28;20529;-73
2022/01/12 01:39:24;;;;;;;22.48;13.05;;;9.30;99.90;;;8.63;100.00;103165.44;4153181;28;20053;-73
2022/01/12 01:41:25;;;;;;;20.88;13.82;;;9.30;99.90;;;8.63;100.00;103168.88;4149544;28;20045;-73
2022/01/12 01:54:58;;;;;;;24.45;14.10;;;9.70;99.90;;;8.60;100.00;103158.53;4167077;28;20040;-73
2022/01/12 01:56:59;;;;;;;21.23;13.18;;;9.40;99.90;;;8.68;100.00;103155.47;4166660;28;20040;-73
2022/01/12 01:59:00;;;;;;;15.68;12.50;;;9.30;99.90;;;8.68;100.00;103160.75;4166938;28;20826;-73
2022/01/12 02:01:03;;;;;;;15.82;12.30;;;9.30;99.90;;;8.60;100.00;103147.19;4165819;28;20033;-73
2022/01/12 02:03:04;;;;;;;17.08;11.80;;;9.40;99.90;;;8.64;100.00;103149.53;4168599;28;20104;-73
2022/01/12 02:05:05;;;;;;;15.15;11.45;;;9.30;99.90;;;8.64;100.00;103153.94;4168757;28;20420;-73
2022/01/12 02:07:06;;;;;;;17.00;11.90;;;9.40;99.90;;;8.57;100.00;103153.44;4152043;28;20105;-73
2022/01/12 02:09:07;;;;;;;15.93;10.55;;;9.30;99.90;;;8.52;100.00;103152.84;4175319;28;20560;-73
2022/01/12 02:11:08;;;;;;;16.55;12.15;;;9.30;99.90;;;8.45;100.00;103133.09;4167898;28;20080;-73
2022/01/12 02:13:10;;;;;;;18.50;12.32;;;9.20;99.90;;;8.61;100.00;103170.75;4153299;28;20105;-73
2022/01/12 02:15:22;;;;;;;15.77;11.45;;;9.20;99.90;;;8.60;100.00;103169.03;4157212;28;20037;-73
2022/01/12 02:17:31;;;;;;;16.27;12.30;;;9.20;99.90;;;8.60;100.00;103162.97;4153398;28;20025;-73
2022/01/12 02:35:52;;;;;;;19.23;11.25;;;9.20;99.90;;;8.46;100.00;103163.69;4181705;28;20040;-73
2022/01/12 02:40:00;;;;;;;17.25;11.70;;;9.10;99.90;;;8.37;100.00;103177.34;4166995;28;20400;-73
2022/01/12 02:42:01;;;;;;;18.15;11.43;;;8.60;99.90;;;8.38;100.00;103181.69;4163986;28;20402;-73
2022/01/12 02:50:56;;;;;;;18.25;11.30;;;9.00;99.90;;;8.29;100.00;103180.41;4154356;28;20504;-73
2022/01/12 02:55:18;;;;;;;15.60;11.18;;;9.00;99.90;;;8.18;100.00;103189.75;4153166;28;20060;-73
2022/01/12 02:57:20;;;;;;;16.10;9.75;;;8.90;99.90;;;8.21;100.00;103193.03;4152558;28;20034;-73
2022/01/12 02:59:21;;;;;;;15.65;11.27;;;9.10;99.90;;;8.49;100.00;103204.75;4169208;28;20033;-73
2022/01/12 03:03:33;;;;;;;18.17;10.68;;;9.10;99.90;;;8.54;100.00;103194.88;4169047;28;20515;-73
2022/01/12 03:05:44;;;;;;;14.82;10.75;;;9.10;99.90;;;8.48;100.00;103193.41;4169165;28;20053;-73
2022/01/12 03:07:45;;;;;;;17.52;10.77;;;9.20;99.90;;;8.49;100.00;103202.13;4168883;28;20046;-73
2022/01/12 03:09:46;;;;;;;14.85;12.10;;;9.00;99.90;;;8.48;100.00;103197.81;4168946;28;20105;-73
2022/01/12 03:11:47;;;;;;;17.63;11.30;;;9.70;99.90;;;8.43;100.00;103184.91;4169068;28;20037;-73
2022/01/12 03:13:50;;;;;;;16.55;10.95;;;9.10;99.90;;;8.42;100.00;103180.59;4168368;28;20025;-73
2022/01/12 03:15:51;;;;;;;14.43;10.43;;;9.10;99.90;;;8.42;100.00;103180.59;4161208;28;20072;-73
2022/01/12 03:17:52;;;;;;;13.23;10.20;;;9.10;99.90;;;8.45;100.00;103187.47;4151195;28;20033;-73
2022/01/12 03:19:53;;;;;;;20.58;10.70;;;9.10;99.90;;;8.25;100.00;103168.31;4151157;28;20041;-73
2022/01/12 03:21:53;;;;;;;16.50;11.02;;;9.00;99.90;;;8.43;100.00;103174.38;4155581;28;20030;-73
2022/01/12 03:23:55;;;;;;;16.70;10.23;;;9.10;99.90;;;8.42;100.00;103191.13;4152370;28;20088;-73
2022/01/12 03:25:56;;;;;;;18.50;10.35;;;9.20;99.90;;;8.43;100.00;103184.91;4173585;28;20017;-73
2022/01/12 03:28:00;;;;;;;15.48;11.68;;;9.10;99.90;;;8.37;100.00;103182.59;4157349;28;20025;-73
2022/01/12 03:30:05;;;;;;;23.40;11.00;;;9.30;99.90;;;8.50;100.00;103203.84;4151191;28;20404;-73
2022/01/12 03:32:06;;;;;;;15.00;10.50;;;9.20;99.90;;;8.54;100.00;103208.84;4152447;28;20030;-73
2022/01/12 03:34:10;;;;;;;15.05;10.77;;;9.60;99.90;;;8.53;100.00;103209.78;4152258;28;20057;-73
2022/01/12 03:38:30;;;;;;;14.98;10.25;;;9.20;99.90;;;8.59;100.00;103204.19;4168603;28;19971;-73
2022/01/12 03:40:31;;;;;;;15.80;9.50;;;9.20;99.90;;;8.57;100.00;103211.31;4168587;28;20025;-73
2022/01/12 03:42:32;;;;;;;18.98;9.68;;;9.20;99.90;;;8.53;100.00;103198.41;4183489;28;20040;-73
2022/01/12 03:44:33;;;;;;;16.17;9.55;;;9.10;99.90;;;8.63;100.00;103216.22;4167247;28;20040;-73
2022/01/12 03:46:53;;;;;;;14.18;9.77;;;9.20;99.90;;;8.61;100.00;103210.22;4167184;28;20029;-73
2022/01/12 03:48:54;;;;;;;11.75;9.20;;;9.20;99.90;;;8.53;100.00;103208.94;4167251;28;20021;-73
2022/01/12 03:50:56;;;;;;;16.88;8.60;;;9.20;99.90;;;8.53;100.00;103212.44;4167295;28;20032;-73
2022/01/12 03:52:57;;;;;;;14.80;9.07;;;9.20;99.90;;;8.49;100.00;103213.50;4163110;28;20022;-73
2022/01/12 03:54:58;;;;;;;17.33;8.40;;;9.20;99.90;;;8.56;100.00;103214.03;4152047;28;20049;-73
2022/01/12 03:56:59;;;;;;;14.98;9.02;;;9.20;99.90;;;8.72;100.00;103228.91;4174214;28;20029;-73
2022/01/12 03:59:01;;;;;;;15.75;9.35;;;9.20;99.90;;;8.75;100.00;103209.47;4156568;28;20568;-73
2022/01/12 04:01:03;;;;;;;22.20;9.15;;;9.30;99.90;;;8.71;100.00;103206.16;4178223;28;20111;-73
2022/01/12 04:03:06;;;;;;;13.43;8.82;;;9.20;99.90;;;8.69;100.00;103225.59;4150573;28;20125;-73
2022/01/12 04:05:10;;;;;;;15.38;8.45;;;9.30;99.90;;;8.74;100.00;103227.06;4168070;28;20074;-73
2022/01/12 04:09:30;;;;;;;15.05;8.55;;;9.30;99.90;;;8.58;100.00;103220.91;4160220;28;20041;-73
2022/01/12 04:11:31;;;;;;;18.58;9.07;;;9.20;99.90;;;8.63;100.00;103221.50;4168220;28;20037;-73
2022/01/12 04:13:33;;;;;;;14.95;9.15;;;9.50;99.90;;;8.67;100.00;103230.94;4167742;28;20486;-73
2022/01/12 04:15:34;;;;;;;15.00;8.77;;;9.30;99.90;;;8.60;100.00;103236.63;4163033;28;20025;-73
2022/01/12 04:17:35;;;;;;;18.20;9.65;;;9.20;99.90;;;8.45;100.00;103243.56;4134067;28;20030;-73
2022/01/12 04:19:36;;;;;;;12.52;8.68;;;9.20;99.90;;;8.53;100.00;103225.56;4150365;28;20116;-73
2022/01/12 04:21:43;;;;;;;15.25;9.50;;;9.10;99.90;;;8.51;100.00;103235.31;4154012;28;20025;-73
2022/01/12 04:23:44;;;;;;;16.85;10.55;;;9.40;99.90;;;8.42;100.00;103230.56;4151626;28;20072;-73
2022/01/12 04:25:51;;;;;;;19.92;10.35;;;9.10;99.90;;;8.36;100.00;103223.00;4150812;28;20021;-73
2022/01/12 04:27:52;;;;;;;18.42;11.02;;;9.10;99.90;;;8.44;100.00;103241.84;4179496;28;20025;-73
2022/01/12 04:29:53;;;;;;;15.30;9.70;;;9.10;99.90;;;8.38;100.00;103236.91;4167778;28;20021;-73
2022/01/12 04:31:54;;;;;;;14.95;9.77;;;9.00;99.90;;;8.29;100.00;103242.66;4166563;28;20037;-73
2022/01/12 04:33:55;;;;;;;15.82;9.60;;;9.00;99.90;;;8.27;100.00;103233.97;4166703;28;20041;-73
2022/01/12 04:35:56;;;;;;;14.55;9.40;;;9.00;99.90;;;8.26;100.00;103242.78;4167635;28;20150;-73
2022/01/12 04:37:57;;;;;;;14.88;8.98;;;9.00;99.90;;;8.19;100.00;103238.75;4167657;28;20040;-73
2022/01/12 04:39:58;;;;;;;13.85;9.23;;;9.00;99.90;;;8.19;100.00;103251.91;4166397;28;20037;-73
2022/01/12 04:41:59;;;;;;;13.90;9.30;;;9.30;99.90;;;8.15;100.00;103245.94;4167480;28;20216;-73
2022/01/12 04:44:02;;;;;;;14.77;9.85;;;8.90;99.90;;;8.27;100.00;103247.13;4166368;28;20045;-73
2022/01/12 04:48:20;;;;;;;13.60;9.35;;;8.90;99.90;;;8.16;100.00;103241.53;4155296;28;20168;-73
2022/01/12 04:50:26;;;;;;;13.93;9.95;;;9.00;99.90;;;8.20;100.00;103243.94;4167612;28;20120;-73
2022/01/12 04:52:27;;;;;;;20.40;11.48;;;8.30;99.90;;;8.27;100.00;103257.63;4167567;28;20052;-73
2022/01/12 04:54:28;;;;;;;17.00;10.32;;;8.90;99.90;;;8.15;100.00;103247.75;4167581;28;20108;-73
2022/01/12 04:56:30;;;;;;;19.48;10.95;;;8.90;99.90;;;8.20;100.00;103259.72;4166106;28;20394;-73
2022/01/12 04:58:31;;;;;;;18.58;10.82;;;9.80;99.90;;;8.19;100.00;103258.00;4166100;28;20026;-73
2022/01/12 05:00:33;;;;;;;20.45;10.88;;;8.90;99.90;;;8.10;100.00;103253.22;4166181;28;20120;-73
2022/01/12 05:07:41;;;;;;;15.50;10.20;;;8.90;99.90;;;8.12;100.00;103254.00;4166128;28;20053;-73
2022/01/12 05:12:48;;;;;;;37.97;11.75;;;8.80;99.90;;;8.12;100.00;103250.53;4166384;28;20034;-73
2022/01/12 05:13:03;;;;;;;18.42;11.45;;;7.60;99.90;;;8.20;100.00;103264.13;4166210;28;20401;-73
2022/01/12 05:14:58;;;;;;;24.73;11.68;;;8.80;99.90;;;8.21;100.00;103260.59;4166734;28;20128;-73
2022/01/12 05:16:59;;;;;;;19.38;11.75;;;8.80;99.90;;;8.29;100.00;103263.69;4150939;28;20029;-73
2022/01/12 05:19:01;;;;;;;18.45;11.77;;;8.90;99.90;;;8.27;100.00;103271.63;4158651;28;20033;-73
2022/01/12 05:21:03;;;;;;;17.02;10.82;;;8.90;99.90;;;8.23;100.00;103270.09;4166029;28;20035;-73
2022/01/12 05:23:04;;;;;;;25.90;11.98;;;8.90;99.90;;;8.19;100.00;103250.13;4152691;28;20037;-73
2022/01/12 05:25:05;;;;;;;20.55;11.10;;;8.90;99.90;;;8.16;100.00;103258.19;4150808;28;20034;-73
2022/01/12 05:27:06;;;;;;;20.67;11.68;;;8.90;99.90;;;8.07;100.00;103249.91;4166204;28;20033;-73
2022/01/12 05:29:08;;;;;;;20.45;11.13;;;8.80;99.90;;;8.08;100.00;103264.75;4161431;28;20071;-73
2022/01/12 05:31:12;;;;;;;18.33;10.82;;;8.80;99.90;;;8.08;100.00;103263.00;4165179;28;20029;-73
2022/01/12 05:33:14;;;;;;;22.38;10.60;;;8.80;99.90;;;8.07;100.00;103261.28;4167351;28;20040;-73
2022/01/12 05:35:17;;;;;;;19.35;11.85;;;8.80;99.90;;;8.13;100.00;103274.09;4167223;28;20400;-73
2022/01/12 05:37:18;;;;;;;17.42;11.52;;;8.80;99.90;;;7.99;100.00;103262.59;4169298;28;20037;-73
2022/01/12 05:39:19;;;;;;;20.10;12.40;;;8.80;99.90;;;8.23;100.00;103279.75;4170511;28;20060;-73
2022/01/12 05:41:20;;;;;;;17.95;11.70;;;8.90;99.90;;;8.23;100.00;103279.75;4169335;28;20059;-73
2022/01/12 05:43:28;;;;;;;19.75;11.82;;;9.50;99.90;;;8.24;100.00;103281.47;4178904;28;20135;-73
2022/01/12 05:45:32;;;;;;;23.38;11.73;;;8.80;99.90;;;8.17;100.00;103269.53;4161351;28;20091;-73
2022/01/12 05:49:45;;;;;;;15.75;10.55;;;8.80;99.90;;;8.20;100.00;103298.31;4164914;28;20374;-73
2022/01/12 05:51:46;;;;;;;19.52;11.63;;;8.90;99.90;;;8.15;100.00;103293.28;4153884;28;20044;-73
2022/01/12 05:53:47;;;;;;;14.05;10.13;;;7.90;99.90;;;8.04;100.00;103290.34;4153887;28;20108;-73
2022/01/12 05:55:48;;;;;;;18.42;10.73;;;8.80;99.90;;;8.01;100.00;103289.66;4152641;28;20045;-73
2022/01/12 05:57:49;;;;;;;22.95;11.25;;;8.50;99.90;;;8.05;100.00;103304.34;4159474;28;20060;-73
2022/01/12 05:59:50;;;;;;;19.95;11.85;;;8.80;99.90;;;7.94;100.00;103288.28;4152610;28;20025;-73
2022/01/12 06:01:51;;;;;;;18.25;11.10;;;8.70;99.90;;;8.01;100.00;103301.00;4166784;28;20036;-73
2022/01/12 06:03:52;;;;;;;21.75;12.55;;;8.80;99.90;;;8.02;100.00;103305.34;4167581;28;20108;-73
2022/01/12 06:05:53;;;;;;;18.23;10.82;;;8.80;99.90;;;8.04;100.00;103305.25;4153684;28;20030;-73
2022/01/12 06:07:55;;;;;;;19.60;11.32;;;8.70;99.90;;;8.05;100.00;103309.59;4162470;28;20045;-73
2022/01/12 06:09:56;;;;;;;21.23;12.20;;;8.70;99.90;;;7.98;100.00;103293.28;4170086;28;20039;-73
2022/01/12 06:11:57;;;;;;;18.73;11.02;;;8.80;99.90;;;8.08;100.00;103280.53;4168376;28;20026;-73
2022/01/12 06:13:59;;;;;;;17.17;11.15;;;8.70;99.90;;;8.16;100.00;103296.75;4169966;28;20048;-73
2022/01/12 06:16:01;;;;;;;18.58;10.35;;;8.80;99.90;;;8.04;100.00;103306.13;4160609;28;20783;-73
2022/01/12 06:18:02;;;;;;;17.27;9.85;;;8.60;99.90;;;8.08;100.00;103312.06;4153770;28;20029;-73
2022/01/12 06:20:08;;;;;;;19.73;11.13;;;8.80;99.90;;;8.06;100.00;103292.91;4153484;28;20034;-73
2022/01/12 06:22:09;;;;;;;17.23;10.23;;;8.80;99.90;;;8.03;100.00;103286.03;4156402;28;20057;-73
2022/01/12 06:24:10;;;;;;;18.88;11.38;;;8.80;99.90;;;8.02;100.00;103293.97;4163062;28;20038;-73
2022/01/12 06:26:11;;;;;;;16.67;10.02;;;8.90;99.90;;;8.01;100.00;103273.88;4168494;28;20037;-73
2022/01/12 06:28:35;;;;;;;25.02;12.55;;;8.80;99.90;;;8.18;100.00;103276.50;4168163;28;20036;-73
2022/01/12 06:32:58;;;;;;;20.73;11.77;;;8.80;99.90;;;8.06;100.00;103303.44;4168684;28;20508;-73
2022/01/12 06:34:59;;;;;;;20.15;13.07;;;8.70;99.90;;;8.08;100.00;103291.91;4168447;28;20034;-73
2022/01/12 06:37:01;;;;;;;17.55;11.75;;;8.70;99.90;;;8.02;100.00;103297.47;4168104;28;20087;-73
2022/01/12 06:39:02;;;;;;;22.75;11.60;;;8.70;99.90;;;7.92;100.00;103293.59;4168325;28;20060;-73
2022/01/12 06:41:04;;;;;;;21.67;12.02;;;8.60;99.90;;;7.92;100.00;103288.34;4169103;28;20045;-73
2022/01/12 06:43:05;;;;;;;22.77;12.50;;;8.70;99.90;;;8.09;100.00;103292.75;4167919;28;20026;-72
2022/01/12 06:45:08;;;;;;;20.45;12.73;;;8.60;99.90;;;8.13;100.00;103299.53;4168016;28;20109;-72
2022/01/12 06:47:09;;;;;;;20.35;13.15;;;8.70;99.90;;;8.01;100.00;103300.16;4167884;28;20021;-72
2022/01/12 06:49:11;;;;;;;21.77;11.82;;;8.70;99.90;;;7.95;100.00;103303.09;4167347;28;20036;-72
2022/01/12 06:51:12;;;;;;;20.73;12.32;;;8.60;99.90;;;8.01;100.00;103300.16;4173259;28;20082;-73
2022/01/12 06:53:13;;;;;;;23.02;12.90;;;8.70;99.90;;;7.87;100.00;103298.22;4171193;28;20038;-73
2022/01/12 06:55:15;;;;;;;20.95;12.77;;;8.70;99.90;;;8.08;100.00;103309.44;4152990;28;20030;-73
2022/01/12 06:57:17;;;;;;;19.35;11.63;;;8.70;99.90;;;7.88;100.00;103296.47;4153081;28;20030;-72
2022/01/12 06:59:18;;;;;;;19.40;12.38;;;8.70;99.90;;;8.03;100.00;103296.56;4169277;28;20033;-73
2022/01/12 07:01:18;;;;;;;19.60;12.93;;;8.80;99.90;;;8.08;100.00;103299.78;4169147;28;20128;-73
2022/01/12 07:03:19;;;;;;;22.58;13.30;;;8.50;99.90;;;8.15;100.00;103306.41;4169142;28;20029;-73
2022/01/12 07:05:20;;;;;;;17.05;11.57;;;8.70;99.90;;;8.20;100.00;103312.31;4169034;28;20030;-73
2022/01/12 07:07:23;;;;;;;18.98;12.23;;;8.80;99.90;;;8.20;100.00;103312.31;4172533;28;20051;-73
2022/01/12 07:09:24;;;;;;;20.67;12.73;;;8.80;99.90;;;8.11;100.00;103307.53;4170661;28;20034;-73
2022/01/12 07:11:25;;;;;;;18.88;12.38;;;8.90;99.90;;;8.24;100.00;103331.41;4173831;28;20507;-73
2022/01/12 07:13:26;;;;;;;19.63;10.98;;;8.80;99.90;;;8.39;100.00;103322.78;4156624;28;20026;-73
2022/01/12 07:15:27;;;;;;;21.48;11.15;;;8.80;99.90;;;8.24;100.00;103329.63;4167703;28;20100;-73
2022/01/12 07:17:28;;;;;;;14.98;9.65;;;8.80;99.90;;;8.02;100.00;103321.13;4161319;28;20034;-73
2022/01/12 07:19:29;;;;;;;16.80;10.82;;;8.80;99.90;;;8.02;100.00;103338.66;4152560;28;20029;-73
2022/01/12 07:21:29;;;;;;;20.92;11.75;;;8.70;99.90;;;7.90;100.00;103334.88;4154570;28;20566;-73
2022/01/12 07:23:30;;;;;;;17.42;10.85;;;8.60;99.90;;;7.95;100.00;103340.75;4160136;28;20051;-72
2022/01/12 07:25:31;;;;;;;19.55;11.38;;;8.60;99.90;;;7.91;100.00;103336.59;4170986;28;20026;-72
2022/01/12 07:27:33;;;;;;;21.27;11.38;;;8.60;99.90;;;8.09;100.00;103346.19;4151909;28;20025;-72
2022/01/12 07:29:34;;;;;;;17.35;10.27;;;8.70;99.90;;;8.02;100.00;103347.41;4160984;28;20121;-73
2022/01/12 07:31:35;;;;;;;15.35;10.68;;;8.30;99.90;;;8.19;100.00;103359.69;4152287;28;20030;-72
2022/01/12 07:33:36;;;;;;;15.85;9.95;;;8.70;99.90;;;8.21;100.00;103355.25;4134768;28;20019;-72
2022/01/12 07:35:37;;;;;;;15.07;10.75;;;8.70;99.90;;;7.90;100.00;103340.13;4188833;28;20040;-73
2022/01/12 07:37:38;;;;;;;17.95;11.57;;;8.70;99.90;;;7.99;100.00;103334.41;4156672;28;20021;-73
2022/01/12 07:39:39;;;;;;;15.10;10.50;;;8.70;99.90;;;8.03;100.00;103341.25;4149494;28;20461;-73
2022/01/12 07:41:40;;;;;;;14.75;10.52;;;9.10;99.90;;;8.08;100.00;103354.13;4159003;28;20053;-73
2022/01/12 07:43:40;;;;;;;20.17;12.30;;;8.70;99.90;;;8.12;100.00;103364.41;4144432;28;20034;-73
2022/01/12 07:45:42;;;;;;;18.73;10.18;;;8.70;99.90;;;8.06;100.00;103362.13;4163402;28;20032;-73
2022/01/12 07:47:43;;;;;;;18.10;11.20;;;8.70;99.90;;;7.96;100.00;103357.38;4152351;28;20493;-73
2022/01/12 07:49:44;;;;;;;18.67;11.73;;;8.70;99.90;;;8.09;100.00;103356.72;4182798;28;20025;-73
2022/01/12 07:51:45;;;;;;;16.85;10.02;;;8.70;99.90;;;7.98;100.00;103366.88;4149892;28;20029;-74
2022/01/12 07:53:46;;;;;;;18.25;10.63;;;8.70;99.90;;;7.84;100.00;103350.09;4163895;28;20049;-73
2022/01/12 07:55:47;;;;;;;16.80;10.25;;;8.70;99.90;;;8.09;100.00;103372.47;4178952;28;20028;-72
2022/01/12 07:57:49;;;;;;;21.02;12.20;;;8.70;99.90;;;8.01;100.00;103361.47;4156260;28;20456;-73
2022/01/12 07:59:50;;;;;;;18.02;11.38;;;9.10;99.90;;;8.06;100.00;103367.38;4166759;28;20021;-73
2022/01/12 08:01:50;;;;;;;21.73;11.63;;;8.60;99.90;;;8.13;100.00;103383.66;4166816;28;20025;-73
2022/01/12 08:03:52;;;;;;;16.63;11.13;;;8.60;99.90;;;8.07;100.00;103390.09;4155183;28;20026;-73
2022/01/12 08:05:53;;;;;;;18.63;11.88;;;8.70;99.90;;;7.95;100.00;103384.56;4194432;28;20039;-73
2022/01/12 08:07:55;;;;;;;17.58;11.20;;;9.30;99.90;;;7.91;100.00;103383.03;4158598;28;20058;-73
2022/01/12 08:09:56;;;;;;;18.15;10.38;;;8.70;99.90;;;7.87;100.00;103387.56;4150225;28;20117;-73
2022/01/12 08:11:57;;;;;;;20.15;10.93;;;8.70;99.90;;;7.70;100.00;103388.41;4148631;28;20033;-73
2022/01/12 08:13:58;;;;;;;18.58;11.02;;;9.00;99.90;;;7.67;100.00;103398.19;4158335;28;20105;-73
2022/01/12 08:15:59;;;;;;;16.55;11.95;;;8.90;99.90;;;7.67;100.00;103408.72;4150572;28;20049;-73
2022/01/12 08:18:00;;;;;;;15.15;10.52;;;8.40;99.90;;;7.61;100.00;103401.13;4149721;28;20057;-73
2022/01/12 08:20:05;;;;;;;16.70;11.07;;;8.40;99.90;;;7.58;100.00;103383.72;4164437;28;20036;-73
2022/01/12 08:22:06;;;;;;;16.52;11.15;;;8.40;99.90;;;7.55;100.00;103404.88;4154102;28;20398;-73
2022/01/12 08:24:07;;;;;;;18.65;11.60;;;8.30;99.90;;;7.67;100.00;103422.69;4166395;28;20033;-74
2022/01/12 08:26:08;;;;;;;17.35;11.48;;;8.30;99.90;;;7.66;100.00;103431.50;4152147;28;20397;-74
2022/01/12 08:28:09;;;;;;;16.35;10.88;;;8.20;99.90;;;7.40;100.00;103426.59;4177821;28;20036;-73
2022/01/12 08:30:17;;;;;;;19.45;11.02;;;9.20;99.90;;;7.37;100.00;103437.25;4141574;28;20160;-74
2022/01/12 08:32:18;;;;;;;17.45;11.57;;;8.30;99.90;;;7.32;100.00;103433.94;4163735;28;20025;-74
2022/01/12 08:34:19;;;;;;;17.95;11.95;;;8.80;99.90;;;7.38;100.00;103425.78;4161388;28;20025;-73
2022/01/12 08:36:20;;;;;;;19.30;11.80;;;8.10;99.90;;;7.42;100.00;103427.38;4145983;28;20537;-73
2022/01/12 08:38:21;;;;;;;19.65;11.88;;;8.20;99.90;;;7.43;100.00;103428.22;4150036;28;20030;-73
2022/01/12 08:40:22;;;;;;;17.60;11.50;;;8.20;99.90;;;7.48;100.00;103440.22;4134154;28;20034;-74
2022/01/12 08:42:23;;;;;;;18.95;11.80;;;8.30;99.90;;;7.50;100.00;103427.84;4133927;28;20103;-73
2022/01/12 08:44:24;;;;;;;15.10;11.25;;;7.40;99.90;;;7.59;100.00;103423.94;4150791;28;20054;-74
2022/01/12 08:46:26;;;;;;;15.77;10.43;;;8.20;99.90;;;7.63;100.00;103436.88;4134186;28;20026;-72
2022/01/12 08:48:28;;;;;;;16.92;11.07;;;8.20;99.90;;;7.45;100.00;103434.25;4160393;28;20030;-73
2022/01/12 08:50:29;;;;;;;15.15;10.18;;;8.20;99.90;;;7.37;100.00;103442.50;4139191;28;20041;-72
2022/01/12 08:52:30;;;;;;;15.85;10.60;;;9.10;99.90;;;7.52;100.00;103449.69;4150136;28;20040;-73
2022/01/12 08:54:31;;;;;;;15.63;9.68;;;8.70;99.90;;;7.53;100.00;103455.75;4155010;28;20029;-73
2022/01/12 08:56:35;;;;;;;15.38;9.50;;;8.20;99.90;;;7.58;100.00;103462.53;4167968;28;20469;-73
2022/01/12 08:58:37;;;;;;;18.63;10.32;;;8.20;99.90;;;7.56;100.00;103458.25;4166704;28;20052;-73
2022/01/12 09:00:38;;;;;;;15.25;10.25;;;8.30;99.90;;;7.44;100.00;103466.69;4149499;28;20527;-73
2022/01/12 09:02:40;;;;;;;13.77;9.30;;;8.30;99.90;;;7.52;100.00;103470.69;4166797;28;20690;-73
2022/01/12 09:04:43;;;;;;;19.90;11.10;;;8.10;99.90;;;7.57;100.00;103471.31;4150289;28;20093;-73
2022/01/12 09:06:44;;;;;;;12.70;8.93;;;8.30;99.90;;;7.51;100.00;103474.22;4167874;28;20027;-73
2022/01/12 09:08:45;;;;;;;11.75;9.13;;;8.20;99.90;;;7.39;100.00;103463.41;4166428;28;20579;-73
2022/01/12 09:10:46;;;;;;;14.18;9.48;;;8.30;99.90;;;7.42;100.00;103472.00;4165921;28;20025;-73
2022/01/12 09:12:48;;;;;;;13.43;8.75;;;8.10;99.90;;;7.43;100.00;103473.72;4166012;28;20053;-73
2022/01/12 09:14:50;;;;;;;12.35;8.98;;;8.20;99.90;;;7.39;100.00;103463.41;4150251;28;20115;-73
2022/01/12 09:16:59;;;;;;;11.52;9.05;;;8.20;99.90;;;7.49;100.00;103475.22;4165105;28;20029;-72
2022/01/12 09:19:00;;;;;;;12.88;8.88;;;9.20;99.90;;;7.60;100.00;103465.94;4172936;28;20033;-72
2022/01/12 09:21:01;;;;;;;13.20;9.00;;;8.30;99.90;;;7.58;100.00;103470.41;4163518;28;20475;-73
2022/01/12 09:23:04;;;;;;;12.13;8.52;;;8.40;99.90;;;7.60;100.00;103489.56;4153259;28;20053;-74
2022/01/12 09:25:07;;;;;;;12.38;8.85;;;8.50;99.90;;;7.56;100.00;103488.00;4151017;28;20038;-73
2022/01/12 09:27:09;;;;;;;15.60;9.10;;;8.30;99.90;;;7.27;100.00;103491.06;4151410;28;20026;-73
2022/01/12 09:29:10;;;;;;;10.35;7.80;;;8.10;99.90;;;7.42;100.00;103489.53;4149990;28;20374;-73
2022/01/12 09:31:11;;;;;;;12.18;7.75;;;8.70;99.90;;;7.49;100.00;103489.22;4163735;28;20374;-74
2022/01/12 09:33:12;;;;;;;10.02;7.82;;;8.60;99.90;;;7.55;100.00;103494.19;4166804;28;20085;-73
2022/01/12 09:35:13;;;;;;;12.45;8.95;;;8.30;99.90;;;7.48;100.00;103500.63;4166458;28;20464;-74
2022/01/12 09:37:14;;;;;;;11.98;8.32;;;8.30;99.90;;;7.45;100.00;103499.91;4165732;28;20033;-73
2022/01/12 09:39:15;;;;;;;11.27;8.95;;;8.30;99.90;;;7.43;100.00;103513.13;4177824;28;20036;-73
2022/01/12 09:41:16;;;;;;;15.25;9.32;;;7.70;99.90;;;7.38;100.00;103522.13;4154022;28;20052;-73